Time;durP1;ratioP1;P1;durP2;ratioP2;P2;SDS_P1;SDS_P2;PMS_P1;PMS_P2;Temp;Humidity;BMP_temperature;BMP_pressure;BME280_temperature;BME280_humidity;BME280_pressure;Samples;Min_cycle;Max_cycle;Signal;HPM_P1;HPM_P2
2022/07/30 00:00:57;;;;;;;4.35;2.90;;;;;;;21.24;78.40;100112.41;4864908;29;20123;-81
2022/07/30 00:03:22;;;;;;;7.18;3.10;;;;;;;21.02;78.68;100079.81;4897854;29;20037;-81
2022/07/30 00:05:48;;;;;;;5.25;2.88;;;;;;;21.24;79.19;100125.91;4882501;29;20080;-81
2022/07/30 00:08:14;;;;;;;6.10;3.25;;;;;;;21.21;79.03;100110.78;4898311;29;20136;-81
2022/07/30 00:10:39;;;;;;;5.47;3.40;;;;;;;21.14;78.69;100103.22;4881462;29;20036;-81
2022/07/30 00:13:06;;;;;;;4.78;3.28;;;;;;;21.17;79.10;100112.00;4892617;29;20028;-81
2022/07/30 00:15:31;;;;;;;6.25;3.50;;;;;;;21.09;79.73;100097.34;4897465;29;20054;-81
2022/07/30 00:17:57;;;;;;;6.53;3.50;;;;;;;21.10;80.05;100115.28;4898014;29;20035;-81
2022/07/30 00:20:22;;;;;;;7.28;3.00;;;;;;;21.02;79.25;100114.97;4893911;29;20571;-81
2022/07/30 00:22:48;;;;;;;4.22;2.95;;;;;;;20.86;79.23;100097.13;4894354;29;20040;-81
2022/07/30 00:25:13;;;;;;;6.80;3.35;;;;;;;20.85;79.83;100100.84;4899651;29;20084;-80
2022/07/30 00:27:39;;;;;;;5.03;3.40;;;;;;;20.82;79.76;100111.84;4899483;29;20020;-80
2022/07/30 00:30:05;;;;;;;8.02;3.55;;;;;;;20.80;80.60;100124.63;4898088;29;20029;-81
2022/07/30 00:32:30;;;;;;;6.72;3.50;;;;;;;20.71;81.49;100114.47;4898283;29;20032;-80
2022/07/30 00:34:56;;;;;;;9.70;3.45;;;;;;;20.65;82.23;100108.66;4881902;29;20039;-80
2022/07/30 00:37:22;;;;;;;5.68;3.67;;;;;;;20.72;81.45;100121.59;4898821;29;20028;-80
2022/07/30 00:39:47;;;;;;;6.97;3.20;;;;;;;20.56;82.47;100112.88;4898446;29;20107;-80
2022/07/30 00:42:13;;;;;;;6.65;3.97;;;;;;;20.56;82.56;100126.38;4899699;29;20047;-80
2022/07/30 00:44:40;;;;;;;6.40;3.10;;;;;;;20.37;82.76;100117.88;4900286;29;20025;-81
2022/07/30 00:47:05;;;;;;;6.47;3.38;;;;;;;20.32;83.21;100119.16;4886900;29;20053;-80
2022/07/30 00:49:31;;;;;;;7.60;3.22;;;;;;;20.12;83.30;100107.03;4867358;29;20037;-81
2022/07/30 00:51:56;;;;;;;7.03;3.58;;;;;;;20.05;83.48;100111.13;4898296;29;20108;-80
2022/07/30 00:54:22;;;;;;;5.40;3.58;;;;;;;20.05;83.68;100118.38;4881489;29;20084;-81
2022/07/30 00:56:47;;;;;;;5.20;3.60;;;;;;;20.01;83.72;100122.25;4882213;29;20029;-80
2022/07/30 00:59:13;;;;;;;7.70;3.22;;;;;;;19.98;84.16;100133.28;4881252;29;20036;-81
2022/07/30 01:01:39;;;;;;;7.65;3.90;;;;;;;19.77;84.21;100105.91;4877997;29;20496;-80
2022/07/30 01:04:10;;;;;;;8.98;3.83;;;;;;;19.76;84.92;100111.41;4868926;29;20036;-81
2022/07/30 01:06:37;;;;;;;6.80;4.00;;;;;;;19.86;86.12;100124.19;4896913;29;20028;-81
2022/07/30 01:09:02;;;;;;;4.25;3.17;;;;;;;19.71;86.27;100100.94;4883114;29;20111;-80
2022/07/30 01:11:41;;;;;;;6.47;4.30;;;;;;;19.73;87.23;100123.31;4898429;29;20076;-80
2022/07/30 01:14:07;;;;;;;8.73;3.90;;;;;;;19.53;87.68;100105.75;4880647;29;20036;-80
2022/07/30 01:16:38;;;;;;;6.57;3.83;;;;;;;19.55;88.03;100113.75;4880291;29;20076;-80
2022/07/30 01:22:29;;;;;;;4.90;3.55;;;;;;;19.42;89.16;100113.69;4897396;29;20055;-80
2022/07/30 01:24:57;;;;;;;;;;;;;;;19.37;89.48;100117.69;4896925;29;20647;-81
2022/07/30 01:27:25;;;;;;;6.28;4.07;;;;;;;19.30;90.08;100102.88;4895764;29;20005;-80
2022/07/30 01:29:52;;;;;;;5.25;3.30;;;;;;;19.24;90.30;100097.88;4896952;29;20029;-80
2022/07/30 01:32:22;;;;;;;6.47;3.40;;;;;;;19.22;90.60;100110.59;4896837;29;20029;-81
2022/07/30 01:34:49;;;;;;;9.18;3.83;;;;;;;19.16;90.28;100100.22;4895755;29;20036;-81
2022/07/30 01:37:16;;;;;;;5.40;3.35;;;;;;;19.15;90.94;100104.72;4897440;29;20051;-80
2022/07/30 01:39:42;;;;;;;6.95;4.28;;;;;;;19.21;90.47;100111.53;4896257;29;20028;-81
2022/07/30 01:42:10;;;;;;;6.35;4.35;;;;;;;19.25;90.99;100115.75;4897594;29;20025;-80
2022/07/30 01:44:38;;;;;;;9.00;4.50;;;;;;;19.12;90.72;100098.66;4895238;29;20025;-80
2022/07/30 01:47:04;;;;;;;7.93;3.80;;;;;;;19.10;90.28;100089.81;4898529;29;20103;-80
2022/07/30 01:49:33;;;;;;;7.97;4.35;;;;;;;19.17;90.35;100120.81;4910388;29;20032;-81
2022/07/30 01:52:01;;;;;;;6.63;3.88;;;;;;;18.96;89.51;100103.34;4881371;29;20025;-81
2022/07/30 01:54:29;;;;;;;5.88;3.60;;;;;;;18.85;90.31;100100.47;4899127;29;20043;-80
2022/07/30 01:56:57;;;;;;;7.18;4.55;;;;;;;18.94;90.50;100121.44;4880291;29;20043;-81
2022/07/30 01:59:24;;;;;;;5.80;4.15;;;;;;;18.80;90.44;100102.59;4883343;29;20036;-80
2022/07/30 02:01:50;;;;;;;8.40;3.65;;;;;;;18.81;90.75;100123.22;4884812;29;20029;-80
2022/07/30 02:04:15;;;;;;;6.93;3.78;;;;;;;18.68;91.19;100115.03;4901993;29;20033;-81
2022/07/30 02:06:56;;;;;;;5.43;3.25;;;;;;;18.74;91.68;100124.56;4901669;29;20032;-81
2022/07/30 02:09:30;;;;;;;6.53;3.70;;;;;;;18.74;91.94;100121.84;4884411;29;20051;-81
2022/07/30 02:14:49;;;;;;;6.15;3.85;;;;;;;18.74;91.81;100143.41;4901278;29;20036;-80
2022/07/30 02:17:22;;;;;;;8.45;3.97;;;;;;;18.74;91.90;100151.50;4901401;29;20037;-81
2022/07/30 02:19:52;;;;;;;7.05;4.07;;;;;;;18.61;91.77;100135.25;4889643;29;20017;-80
2022/07/30 02:22:19;;;;;;;6.15;3.85;;;;;;;18.58;92.12;100145.38;4889171;29;20378;-80
2022/07/30 02:24:47;;;;;;;7.80;4.20;;;;;;;18.50;92.55;100137.75;4901399;29;20020;-81
2022/07/30 02:27:18;;;;;;;4.80;3.40;;;;;;;18.42;92.95;100136.53;4884060;29;20116;-81
2022/07/30 02:29:46;;;;;;;8.20;4.35;;;;;;;18.46;93.41;100146.13;4900137;29;20100;-80
2022/07/30 02:32:16;;;;;;;6.93;4.15;;;;;;;18.43;93.70;100151.72;4899530;29;20063;-80
2022/07/30 02:34:44;;;;;;;7.90;4.28;;;;;;;18.34;94.13;100139.63;4883505;29;20551;-80
2022/07/30 02:37:13;;;;;;;6.07;3.83;;;;;;;18.42;94.15;100150.84;4883782;29;20033;-81
2022/07/30 02:39:41;;;;;;;6.95;4.63;;;;;;;18.36;94.26;100135.03;4900985;29;20032;-80
2022/07/30 02:42:08;;;;;;;8.20;4.97;;;;;;;18.31;92.79;100121.00;4900739;29;20158;-81
2022/07/30 02:44:37;;;;;;;7.07;4.75;;;;;;;18.61;92.22;100164.03;4884188;29;20063;-80
2022/07/30 02:47:04;;;;;;;6.68;4.40;;;;;;;18.65;91.47;100152.09;4901140;29;20033;-80
2022/07/30 02:49:34;;;;;;;5.53;4.13;;;;;;;18.74;91.63;100167.69;4899800;29;20024;-80
2022/07/30 02:52:01;;;;;;;7.30;4.85;;;;;;;18.64;91.62;100169.22;4900835;29;20031;-81
2022/07/30 02:54:29;;;;;;;6.93;4.43;;;;;;;18.52;92.44;100165.47;4883843;29;20059;-80
2022/07/30 02:56:56;;;;;;;6.50;4.30;;;;;;;18.47;92.91;100174.81;4883619;29;20487;-80
2022/07/30 02:59:23;;;;;;;6.95;4.57;;;;;;;18.33;93.09;100172.94;4883277;29;20536;-80
2022/07/30 03:01:50;;;;;;;6.53;4.10;;;;;;;18.20;93.73;100172.81;4883516;29;20028;-81
2022/07/30 03:04:19;;;;;;;6.82;4.50;;;;;;;18.18;94.03;100180.13;4899968;29;20036;-80
2022/07/30 03:06:47;;;;;;;7.30;4.97;;;;;;;18.22;94.34;100186.16;4885870;29;20100;-80
2022/07/30 03:09:15;;;;;;;7.90;4.88;;;;;;;18.11;95.01;100168.00;4898591;29;20028;-79
2022/07/30 03:11:41;;;;;;;9.40;4.93;;;;;;;18.19;94.77;100164.81;4884088;29;20051;-80
2022/07/30 03:14:07;;;;;;;6.93;4.43;;;;;;;18.28;94.39;100167.84;4893853;29;20025;-79
2022/07/30 03:16:37;;;;;;;8.50;4.63;;;;;;;18.35;93.36;100161.09;4882502;29;20053;-80
2022/07/30 03:19:12;;;;;;;8.48;4.90;;;;;;;18.42;92.71;100163.47;4883231;29;20025;-79
2022/07/30 03:21:41;;;;;;;8.35;4.63;;;;;;;18.57;91.97;100187.59;4880464;29;20033;-79
2022/07/30 03:24:07;;;;;;;7.00;4.68;;;;;;;18.53;91.73;100187.88;4883006;29;20115;-80
2022/07/30 03:26:35;;;;;;;10.77;5.32;;;;;;;18.51;91.51;100189.81;4863071;29;20031;-80
2022/07/30 03:29:01;;;;;;;6.88;4.35;;;;;;;18.51;90.88;100192.50;4878471;29;20465;-80
2022/07/30 03:31:27;;;;;;;7.03;4.80;;;;;;;18.38;91.23;100168.13;4866147;29;20021;-79
2022/07/30 03:33:53;;;;;;;10.02;5.05;;;;;;;18.47;90.86;100180.19;4879200;29;20040;-80
2022/07/30 03:36:19;;;;;;;18.58;5.82;;;;;;;18.45;90.62;100174.88;4880784;29;20037;-80
2022/07/30 03:38:46;;;;;;;15.75;5.22;;;;;;;18.42;90.16;100176.94;4878425;29;20036;-79
2022/07/30 03:41:12;;;;;;;6.20;4.38;;;;;;;18.30;90.57;100165.91;4879201;29;20039;-80
2022/07/30 03:43:39;;;;;;;8.57;4.78;;;;;;;18.43;91.04;100201.06;4880566;29;20029;-79
2022/07/30 03:46:06;;;;;;;6.32;4.15;;;;;;;18.33;91.41;100189.09;4881038;29;20081;-80
2022/07/30 03:48:34;;;;;;;7.88;4.80;;;;;;;18.26;91.58;100188.59;4881161;29;20095;-80
2022/07/30 03:51:02;;;;;;;7.80;4.60;;;;;;;18.13;91.83;100193.00;4879488;29;20037;-79
2022/07/30 03:53:30;;;;;;;7.20;4.70;;;;;;;18.08;92.32;100208.56;4863838;29;20039;-80
2022/07/30 03:55:56;;;;;;;7.28;4.32;;;;;;;17.98;93.26;100193.94;4865440;29;20036;-79
2022/07/30 03:58:22;;;;;;;9.68;4.95;;;;;;;18.07;93.21;100198.75;4881751;29;20040;-80
2022/07/30 04:00:49;;;;;;;6.95;5.00;;;;;;;18.23;93.74;100220.22;4865272;29;20025;-79
2022/07/30 04:03:25;;;;;;;6.68;4.38;;;;;;;18.27;91.93;100222.63;4865318;29;20473;-80
2022/07/30 04:05:51;;;;;;;6.38;4.78;;;;;;;18.21;91.17;100206.88;4863571;29;20043;-80
2022/07/30 04:08:16;;;;;;;8.60;4.80;;;;;;;18.06;90.51;100183.56;4860651;29;20509;-80
2022/07/30 04:10:42;;;;;;;7.75;4.50;;;;;;;18.26;90.29;100214.66;4883032;29;20768;-80
2022/07/30 04:13:07;;;;;;;7.25;4.68;;;;;;;18.35;90.01;100208.72;4863393;29;20029;-80
2022/07/30 04:15:52;;;;;;;9.77;5.05;;;;;;;18.42;89.61;100223.56;4885827;29;20080;-80
2022/07/30 04:18:18;;;;;;;8.30;4.85;;;;;;;18.42;88.92;100225.41;4867680;29;20147;-80
2022/07/30 04:20:48;;;;;;;8.15;4.60;;;;;;;18.48;89.06;100219.63;4893013;29;20021;-80
2022/07/30 04:23:14;;;;;;;8.20;4.57;;;;;;;18.40;88.41;100205.78;4899623;29;20037;-80
2022/07/30 04:25:42;;;;;;;9.30;4.22;;;;;;;18.57;88.05;100221.75;4913107;29;20032;-80
2022/07/30 04:28:10;;;;;;;8.45;5.18;;;;;;;18.51;87.86;100205.97;4881679;29;20035;-80
2022/07/30 04:30:36;;;;;;;13.88;5.07;;;;;;;18.61;87.54;100226.00;4883610;29;20055;-79
2022/07/30 04:33:03;;;;;;;8.20;4.32;;;;;;;18.68;87.55;100232.75;4901200;29;20031;-79
2022/07/30 04:35:31;;;;;;;7.40;4.35;;;;;;;18.54;87.47;100232.72;4883013;29;20029;-80
2022/07/30 04:37:57;;;;;;;7.53;4.50;;;;;;;18.43;88.08;100225.31;4883828;29;20035;-79
2022/07/30 04:40:22;;;;;;;7.10;4.22;;;;;;;18.39;88.68;100234.53;4880990;29;20036;-80
2022/07/30 04:42:48;;;;;;;7.43;4.65;;;;;;;18.32;88.64;100243.91;4899510;29;20032;-80
2022/07/30 04:45:13;;;;;;;6.90;4.47;;;;;;;18.18;89.26;100223.22;4898576;29;20052;-80
2022/07/30 04:47:39;;;;;;;9.02;4.85;;;;;;;18.13;89.65;100230.69;4880546;29;20032;-80
2022/07/30 04:50:07;;;;;;;13.23;6.28;;;;;;;18.19;90.07;100235.69;4897062;29;20156;-80
2022/07/30 04:52:33;;;;;;;7.47;4.68;;;;;;;18.26;89.77;100253.22;4897159;29;20027;-80
2022/07/30 04:55:03;;;;;;;15.48;5.47;;;;;;;18.21;89.78;100244.56;4899196;29;20064;-80
2022/07/30 04:57:30;;;;;;;8.88;5.35;;;;;;;18.35;89.92;100263.44;4899358;29;20043;-79
2022/07/30 04:59:56;;;;;;;6.25;4.85;;;;;;;18.28;89.79;100245.94;4897143;29;20115;-80
2022/07/30 05:02:25;;;;;;;8.65;5.10;;;;;;;18.29;90.54;100234.19;4899113;29;20040;-80
2022/07/30 05:04:52;;;;;;;10.20;5.47;;;;;;;18.54;90.32;100256.97;4896508;29;20509;-80
2022/07/30 05:07:20;;;;;;;7.60;5.22;;;;;;;18.61;89.72;100247.56;4903624;29;20052;-80
2022/07/30 05:09:46;;;;;;;6.88;4.80;;;;;;;18.86;88.10;100264.78;4898558;29;20151;-80
2022/07/30 05:12:12;;;;;;;9.80;4.63;;;;;;;18.85;87.29;100262.19;4916379;29;20499;-80
2022/07/30 05:14:37;;;;;;;16.55;5.57;;;;;;;18.99;87.00;100259.50;4914088;29;20084;-80
2022/07/30 05:17:03;;;;;;;12.35;5.07;;;;;;;19.16;86.46;100265.56;4900328;29;20084;-80
2022/07/30 05:19:28;;;;;;;20.65;6.43;;;;;;;19.13;85.80;100236.09;4912660;29;20028;-80
2022/07/30 05:21:54;;;;;;;6.90;5.00;;;;;;;19.29;84.90;100254.91;4882720;29;20028;-80
2022/07/30 05:24:20;;;;;;;10.02;4.63;;;;;;;19.47;84.31;100261.81;4897786;29;20078;-80
2022/07/30 05:26:46;;;;;;;8.27;5.40;;;;;;;19.59;83.16;100258.28;4880181;29;20028;-80
2022/07/30 05:29:12;;;;;;;9.38;4.88;;;;;;;19.64;82.59;100248.94;4895271;29;20496;-80
2022/07/30 05:31:38;;;;;;;6.32;4.22;;;;;;;19.92;82.25;100266.00;4880421;29;20064;-80
2022/07/30 05:34:03;;;;;;;8.05;4.20;;;;;;;19.81;81.25;100233.44;4899992;29;20161;-80
2022/07/30 05:36:29;;;;;;;6.82;4.60;;;;;;;20.18;80.70;100282.19;4900805;29;20033;-80
2022/07/30 05:38:55;;;;;;;8.80;5.43;;;;;;;20.19;80.29;100272.28;4883141;29;20032;-80
2022/07/30 05:41:20;;;;;;;11.27;4.72;;;;;;;20.24;79.98;100259.31;4899993;29;20024;-80
2022/07/30 05:43:46;;;;;;;9.43;4.72;;;;;;;20.46;78.95;100279.34;4884370;29;20495;-80
2022/07/30 05:46:11;;;;;;;10.05;4.80;;;;;;;20.47;77.65;100261.31;4883927;29;20131;-80
2022/07/30 05:48:37;;;;;;;6.68;4.22;;;;;;;20.63;77.58;100275.47;4875522;29;20080;-80
2022/07/30 05:51:03;;;;;;;7.82;4.47;;;;;;;20.63;77.09;100252.03;4881406;29;20115;-80
2022/07/30 05:53:28;;;;;;;11.98;4.57;;;;;;;20.90;76.49;100279.81;4901046;29;20480;-80
2022/07/30 05:55:54;;;;;;;10.35;4.85;;;;;;;21.09;76.26;100283.97;4883891;29;20036;-80
2022/07/30 05:58:19;;;;;;;7.65;4.50;;;;;;;21.20;75.87;100273.25;4883589;29;20138;-80
2022/07/30 06:00:45;;;;;;;6.70;4.57;;;;;;;21.41;75.13;100277.09;4881932;29;20076;-80
2022/07/30 06:03:11;;;;;;;7.03;3.95;;;;;;;21.51;74.08;100278.16;4899399;29;20025;-80
2022/07/30 06:05:36;;;;;;;7.15;4.13;;;;;;;21.63;73.32;100271.84;4882669;29;20745;-81
2022/07/30 06:08:02;;;;;;;7.05;3.95;;;;;;;21.73;72.55;100283.75;4883135;29;20048;-80
2022/07/30 06:10:28;;;;;;;6.60;3.88;;;;;;;21.91;71.41;100295.94;4900080;29;20059;-80
2022/07/30 06:12:54;;;;;;;6.30;4.15;;;;;;;21.97;70.54;100290.06;4883712;29;20502;-80
2022/07/30 06:15:20;;;;;;;7.18;3.90;;;;;;;21.92;70.85;100267.88;4884397;29;20029;-80
2022/07/30 06:17:46;;;;;;;6.68;4.10;;;;;;;22.18;69.07;100291.16;4883953;29;20676;-80
2022/07/30 06:20:14;;;;;;;5.53;3.83;;;;;;;22.29;68.62;100293.91;4883185;29;20025;-81
2022/07/30 06:22:40;;;;;;;10.05;3.63;;;;;;;22.25;68.59;100286.13;4883820;29;20069;-80
2022/07/30 06:25:06;;;;;;;7.53;3.60;;;;;;;22.40;68.28;100288.53;4899266;29;20048;-80
2022/07/30 06:27:33;;;;;;;9.27;4.03;;;;;;;22.46;68.54;100270.91;4900192;29;20028;-80
2022/07/30 06:30:03;;;;;;;10.02;4.25;;;;;;;22.84;67.43;100295.94;4899738;29;20110;-80
2022/07/30 06:32:29;;;;;;;6.20;3.70;;;;;;;23.02;66.85;100298.09;4881309;29;20107;-80
2022/07/30 06:34:54;;;;;;;5.22;3.58;;;;;;;23.07;66.38;100282.31;4882241;29;20119;-80
2022/07/30 06:37:20;;;;;;;4.53;3.45;;;;;;;23.11;65.90;100266.66;4898880;29;20028;-80
2022/07/30 06:39:45;;;;;;;6.50;3.78;;;;;;;23.46;65.01;100293.69;4882052;29;20028;-80
2022/07/30 06:42:11;;;;;;;6.57;3.17;;;;;;;23.50;64.28;100271.59;4900500;29;20462;-80
2022/07/30 06:44:36;;;;;;;5.78;3.20;;;;;;;23.70;65.30;100278.97;4882378;29;20044;-80
2022/07/30 06:47:02;;;;;;;5.60;3.38;;;;;;;23.79;62.08;100296.38;4885258;29;20035;-81
2022/07/30 06:49:30;;;;;;;7.45;3.50;;;;;;;23.87;62.23;100305.59;4899670;29;20043;-80
2022/07/30 06:51:56;;;;;;;6.65;3.38;;;;;;;23.82;61.37;100299.69;4882847;29;20088;-80
2022/07/30 06:54:21;;;;;;;5.25;3.40;;;;;;;24.04;60.86;100310.53;4882752;29;20033;-80
2022/07/30 06:56:47;;;;;;;5.75;3.00;;;;;;;24.30;59.86;100313.81;4898471;29;20070;-80
2022/07/30 06:59:12;;;;;;;7.20;3.35;;;;;;;24.50;58.31;100313.84;4881802;29;20036;-80
2022/07/30 07:01:37;;;;;;;6.30;2.95;;;;;;;24.65;58.46;100314.38;4897453;29;20025;-80
2022/07/30 07:04:03;;;;;;;5.68;3.05;;;;;;;24.80;57.75;100304.06;4898731;29;20483;-80
2022/07/30 07:06:29;;;;;;;5.90;3.55;;;;;;;24.98;56.55;100316.94;4882668;29;20032;-81
2022/07/30 07:08:54;;;;;;;5.43;3.15;;;;;;;25.11;56.91;100317.59;4896888;29;20056;-80
2022/07/30 07:11:19;;;;;;;5.47;3.20;;;;;;;25.36;56.32;100328.09;4866421;29;20096;-80
2022/07/30 07:13:45;;;;;;;5.70;3.00;;;;;;;25.52;55.73;100308.50;4881339;29;20025;-81
2022/07/30 07:16:10;;;;;;;6.90;2.95;;;;;;;25.67;55.10;100298.94;4864306;29;20146;-80
2022/07/30 07:18:36;;;;;;;4.53;2.75;;;;;;;26.01;53.65;100314.00;4864767;29;20048;-81
2022/07/30 07:21:01;;;;;;;7.65;3.15;;;;;;;26.10;52.52;100315.00;4859747;29;20085;-81
2022/07/30 07:23:27;;;;;;;4.82;2.85;;;;;;;26.17;50.78;100313.44;4863088;29;20033;-80
2022/07/30 07:25:52;;;;;;;4.78;2.85;;;;;;;26.25;51.19;100311.75;4862922;29;20061;-80
2022/07/30 07:28:18;;;;;;;8.55;3.53;;;;;;;26.42;51.98;100316.50;4879366;29;20033;-81
2022/07/30 07:30:43;;;;;;;7.18;2.97;;;;;;;26.59;50.23;100317.66;4863192;29;20521;-80
2022/07/30 07:33:09;;;;;;;6.93;2.75;;;;;;;26.94;49.47;100310.59;4881164;29;20032;-80
2022/07/30 07:35:35;;;;;;;10.63;3.10;;;;;;;27.34;48.89;100323.19;4882536;29;20031;-80
2022/07/30 07:38:01;;;;;;;4.20;2.55;;;;;;;27.45;46.44;100292.94;4881693;29;20044;-80
2022/07/30 07:40:26;;;;;;;10.32;2.95;;;;;;;27.71;47.88;100316.69;4885212;29;20058;-81
2022/07/30 07:42:52;;;;;;;5.18;2.55;;;;;;;28.02;46.34;100315.41;4862414;29;20026;-80
2022/07/30 07:45:18;;;;;;;5.00;2.53;;;;;;;28.09;46.40;100307.44;4848980;29;20036;-81
2022/07/30 07:47:48;;;;;;;5.53;3.38;;;;;;;28.26;45.65;100315.69;4872989;29;20029;-81
2022/07/30 07:50:14;;;;;;;6.35;2.95;;;;;;;28.48;46.13;100315.22;4864302;29;20116;-81
2022/07/30 07:52:40;;;;;;;5.85;3.08;;;;;;;28.75;44.60;100313.44;4861456;29;20033;-80
2022/07/30 07:55:06;;;;;;;5.13;2.20;;;;;;;28.91;44.83;100305.34;4861876;29;20112;-81
2022/07/30 07:57:41;;;;;;;3.50;2.40;;;;;;;29.30;43.30;100314.91;4843639;29;20090;-80
2022/07/30 08:00:09;;;;;;;4.65;2.75;;;;;;;29.43;43.32;100320.81;4865624;29;20013;-80
2022/07/30 08:02:35;;;;;;;4.05;2.83;;;;;;;29.62;43.63;100317.84;4856231;29;20041;-81
2022/07/30 08:05:01;;;;;;;6.07;2.67;;;;;;;29.76;42.50;100294.44;4860211;29;20081;-81
2022/07/30 08:07:27;;;;;;;4.60;2.80;;;;;;;29.98;42.88;100316.66;4887356;29;20060;-81
2022/07/30 08:09:53;;;;;;;5.32;2.45;;;;;;;30.26;41.04;100315.41;4880691;29;20037;-81
2022/07/30 08:12:18;;;;;;;6.07;2.67;;;;;;;30.34;40.30;100289.84;4876637;29;20652;-81
2022/07/30 08:14:44;;;;;;;4.22;2.72;;;;;;;30.43;40.26;100308.91;4887315;29;20032;-81
2022/07/30 08:17:09;;;;;;;4.80;2.17;;;;;;;30.61;40.64;100303.28;4882575;29;20083;-81
2022/07/30 08:19:35;;;;;;;4.65;2.55;;;;;;;30.82;40.31;100307.25;4877484;29;20036;-81
2022/07/30 08:22:00;;;;;;;5.55;2.38;;;;;;;30.74;39.68;100301.72;4878281;29;20072;-81
2022/07/30 08:24:25;;;;;;;5.38;2.10;;;;;;;30.93;39.98;100308.78;4868198;29;20053;-81
2022/07/30 08:26:51;;;;;;;5.20;1.90;;;;;;;30.95;39.81;100297.63;4874105;29;20028;-82
2022/07/30 08:29:16;;;;;;;3.72;2.40;;;;;;;31.17;39.48;100307.91;4863533;29;20096;-81
2022/07/30 08:31:42;;;;;;;12.15;2.83;;;;;;;31.62;39.51;100309.03;4890949;29;20075;-82
2022/07/30 08:34:08;;;;;;;4.22;2.47;;;;;;;31.66;38.14;100301.28;4880241;29;20035;-82
2022/07/30 08:36:33;;;;;;;6.00;2.50;;;;;;;31.82;38.38;100312.22;4892304;29;20392;-81
2022/07/30 08:38:59;;;;;;;4.57;2.35;;;;;;;32.05;37.63;100300.28;4875162;29;20036;-81
2022/07/30 08:41:27;;;;;;;8.18;2.38;;;;;;;32.10;38.52;100302.47;4885057;29;20062;-81
2022/07/30 08:43:54;;;;;;;5.53;2.60;;;;;;;32.37;38.02;100313.00;4869462;29;20032;-81
2022/07/30 08:46:25;;;;;;;7.13;2.42;;;;;;;32.49;37.32;100306.03;4884706;29;20115;-82
2022/07/30 08:48:51;;;;;;;7.57;2.80;;;;;;;32.60;36.81;100302.88;4872055;29;20033;-82
2022/07/30 08:51:18;;;;;;;8.85;2.83;;;;;;;32.56;35.61;100295.16;4881479;29;20499;-82
2022/07/30 08:53:44;;;;;;;6.00;2.55;;;;;;;32.56;36.28;100309.78;4871905;29;20029;-82
2022/07/30 08:56:10;;;;;;;6.63;2.30;;;;;;;32.68;36.03;100304.72;4887513;29;20116;-82
2022/07/30 08:58:36;;;;;;;5.38;2.33;;;;;;;33.00;35.61;100310.81;4879715;29;20044;-82
2022/07/30 09:01:03;;;;;;;4.20;2.10;;;;;;;33.21;35.57;100322.00;4885034;29;20036;-82
2022/07/30 09:03:29;;;;;;;4.72;2.00;;;;;;;33.38;34.07;100300.63;4879580;29;20085;-82
2022/07/30 09:05:55;;;;;;;4.38;2.08;;;;;;;33.52;33.34;100310.00;4895440;29;20519;-82
2022/07/30 09:08:21;;;;;;;3.55;2.00;;;;;;;33.63;33.80;100280.00;4885593;29;20142;-81
2022/07/30 09:10:48;;;;;;;4.70;2.10;;;;;;;33.81;33.34;100299.78;4869007;29;20060;-81
2022/07/30 09:13:29;;;;;;;3.22;1.77;;;;;;;33.85;31.86;100305.78;4884706;29;20025;-82
2022/07/30 09:15:56;;;;;;;6.68;3.47;;;;;;;34.19;31.79;100304.16;4892144;29;20028;-81
2022/07/30 09:18:31;;;;;;;3.20;1.85;;;;;;;34.25;32.61;100313.56;4892778;29;20040;-81
2022/07/30 09:21:01;;;;;;;7.28;1.75;;;;;;;34.12;31.68;100318.94;4887921;29;20061;-82
2022/07/30 09:23:27;;;;;;;4.50;1.85;;;;;;;33.91;31.03;100310.53;4880563;29;20112;-80
2022/07/30 09:25:53;;;;;;;3.35;1.90;;;;;;;33.66;32.72;100298.13;4891251;29;20039;-81
2022/07/30 09:28:28;;;;;;;4.93;1.60;;;;;;;33.92;32.76;100290.22;4890317;29;20769;-81
2022/07/30 09:30:55;;;;;;;5.35;1.60;;;;;;;34.46;30.51;100305.34;4889516;29;20053;-82
2022/07/30 09:33:34;;;;;;;3.47;1.63;;;;;;;34.61;31.08;100292.31;4879059;29;20036;-82
2022/07/30 09:36:00;;;;;;;3.03;1.50;;;;;;;34.93;29.74;100297.31;4867842;29;20033;-82
2022/07/30 09:38:26;;;;;;;1.98;1.40;;;;;;;35.02;28.90;100307.22;4880799;29;20016;-82
2022/07/30 09:40:56;;;;;;;2.10;1.30;;;;;;;35.10;30.34;100298.75;4883031;29;20488;-82
2022/07/30 09:43:22;;;;;;;2.72;1.70;;;;;;;35.37;30.15;100286.81;4891715;29;20069;-82
2022/07/30 09:45:54;;;;;;;3.08;1.73;;;;;;;35.29;30.13;100309.09;4890646;29;20032;-82
2022/07/30 09:48:21;;;;;;;4.32;2.65;;;;;;;35.14;30.70;100300.06;4891606;29;20056;-82
2022/07/30 09:50:49;;;;;;;3.40;1.60;;;;;;;34.93;31.33;100286.25;4894249;29;20033;-82
2022/07/30 09:53:14;;;;;;;2.03;1.50;;;;;;;34.78;31.21;100282.69;4880520;29;20037;-81
2022/07/30 09:55:41;;;;;;;5.57;1.90;;;;;;;34.69;30.59;100294.94;4892951;29;20037;-82
2022/07/30 09:58:06;;;;;;;4.00;1.85;;;;;;;34.72;31.53;100283.50;4875598;29;20028;-81
2022/07/30 10:00:34;;;;;;;3.13;1.45;;;;;;;34.96;31.34;100274.78;4885304;29;20165;-80
2022/07/30 10:03:13;;;;;;;4.82;1.73;;;;;;;35.47;30.75;100290.09;4871529;29;20033;-83
2022/07/30 10:05:48;;;;;;;5.30;1.90;;;;;;;35.79;30.04;100294.13;4883464;29;20096;-81
2022/07/30 10:08:13;;;;;;;3.03;1.77;;;;;;;35.05;29.40;100268.09;4864144;29;20057;-82
2022/07/30 10:10:39;;;;;;;3.33;1.92;;;;;;;34.99;30.03;100268.91;4895360;29;20154;-82
2022/07/30 10:13:07;;;;;;;3.08;1.80;;;;;;;34.55;30.77;100259.94;4889335;29;20088;-81
2022/07/30 10:15:35;;;;;;;5.07;1.80;;;;;;;34.76;30.75;100253.53;4876168;29;20072;-82
2022/07/30 10:18:02;;;;;;;3.95;1.88;;;;;;;35.09;31.08;100274.91;4872169;29;20024;-81
2022/07/30 10:20:27;;;;;;;3.75;1.70;;;;;;;34.74;32.29;100270.34;4887715;29;20029;-81
2022/07/30 10:22:53;;;;;;;5.03;1.90;;;;;;;34.41;31.57;100260.88;4894286;29;20035;-81
2022/07/30 10:25:20;;;;;;;5.05;2.38;;;;;;;34.85;32.21;100277.22;4898969;29;20032;-81
2022/07/30 10:27:47;;;;;;;4.55;1.60;;;;;;;34.94;31.23;100271.41;4892540;29;20485;-81
2022/07/30 10:30:12;;;;;;;3.50;1.80;;;;;;;35.05;30.94;100268.09;4889997;29;20045;-82
2022/07/30 10:32:39;;;;;;;3.30;1.88;;;;;;;35.37;32.00;100261.91;4880026;29;20133;-80
2022/07/30 10:35:05;;;;;;;3.70;1.77;;;;;;;35.53;30.08;100264.41;4893387;29;20039;-82
2022/07/30 10:37:33;;;;;;;3.55;1.73;;;;;;;35.66;29.45;100267.25;4898011;29;20039;-81
2022/07/30 10:40:09;;;;;;;3.65;1.60;;;;;;;35.77;30.43;100258.34;4877643;29;20025;-82
2022/07/30 10:42:43;;;;;;;2.70;1.70;;;;;;;35.19;31.41;100260.75;4871496;29;20040;-82
2022/07/30 10:45:21;;;;;;;4.22;1.90;;;;;;;35.42;30.38;100250.28;4878496;29;20088;-82
2022/07/30 10:47:48;;;;;;;5.47;1.50;;;;;;;35.36;30.55;100243.59;4891873;29;20024;-82
2022/07/30 10:50:25;;;;;;;1.85;1.23;;;;;;;35.66;30.07;100253.41;4897030;29;20033;-81
2022/07/30 10:52:54;;;;;;;1.98;1.40;;;;;;;35.74;30.27;100241.28;4889408;29;20025;-82
2022/07/30 10:55:31;;;;;;;3.58;1.77;;;;;;;35.79;29.87;100234.09;4883263;29;20056;-82
2022/07/30 10:58:04;;;;;;;2.20;1.30;;;;;;;36.09;29.55;100247.63;4897246;29;20033;-82
2022/07/30 11:00:32;;;;;;;2.60;1.45;;;;;;;36.14;29.60;100239.56;4885129;29;20040;-82
2022/07/30 11:03:11;;;;;;;3.15;1.60;;;;;;;36.51;30.25;100245.41;4881253;29;20040;-82
2022/07/30 11:05:37;;;;;;;2.40;1.48;;;;;;;36.43;29.35;100242.84;4867112;29;20033;-82
2022/07/30 11:08:30;;;;;;;4.60;1.50;;;;;;;35.91;29.59;100247.34;4888527;29;20080;-83
2022/07/30 11:10:56;;;;;;;2.85;1.42;;;;;;;36.07;28.97;100246.97;4867720;29;20032;-82
2022/07/30 11:13:50;;;;;;;3.15;1.55;;;;;;;36.52;28.66;100258.22;4890760;29;20652;-82
2022/07/30 11:16:18;;;;;;;4.35;1.30;;;;;;;36.66;28.33;100248.84;4883571;29;20025;-83
2022/07/30 11:19:16;;;;;;;3.13;1.35;;;;;;;36.40;28.79;100242.41;4877709;29;20441;-82
2022/07/30 11:21:49;;;;;;;3.67;1.38;;;;;;;36.58;28.44;100223.25;4866365;29;20527;-82
2022/07/30 11:24:45;;;;;;;3.50;1.60;;;;;;;36.51;28.75;100239.03;4871316;29;20157;-82
2022/07/30 11:27:33;;;;;;;5.65;1.73;;;;;;;36.33;28.93;100224.91;4887077;29;20108;-82
2022/07/30 11:29:59;;;;;;;2.80;1.08;;;;;;;36.05;29.47;100215.88;4883391;29;20481;-82
2022/07/30 11:32:30;;;;;;;4.78;1.13;;;;;;;36.47;28.87;100219.19;4876219;29;20145;-82